Time;durP1;ratioP1;P1;durP2;ratioP2;P2;SDS_P1;SDS_P2;PMS_P1;PMS_P2;Temp;Humidity;BMP_temperature;BMP_pressure;BME280_temperature;BME280_humidity;BME280_pressure;Samples;Min_cycle;Max_cycle;Signal;HPM_P1;HPM_P2
2023/06/04 00:02:17;;;;;;;7.97;1.75;;;13.90;71.80;;;;;;5074685;28;20185;-85
2023/06/04 00:04:43;;;;;;;8.10;2.10;;;13.80;72.10;;;;;;5074570;28;20036;-85
2023/06/04 00:07:08;;;;;;;7.78;2.83;;;13.70;72.20;;;;;;5057716;28;20655;-86
2023/06/04 00:09:34;;;;;;;8.13;2.58;;;13.80;73.40;;;;;;5073607;28;20126;-85
2023/06/04 00:12:00;;;;;;;5.97;1.52;;;13.90;74.00;;;;;;5073984;28;20058;-85
2023/06/04 00:14:25;;;;;;;8.13;3.22;;;13.80;73.30;;;;;;5057369;28;20044;-85
2023/06/04 00:16:51;;;;;;;8.38;3.05;;;13.80;74.30;;;;;;5074144;28;20042;-85
2023/06/04 00:19:16;;;;;;;9.50;1.88;;;13.80;74.40;;;;;;5073987;28;20036;-85
2023/06/04 00:21:42;;;;;;;4.90;1.80;;;13.70;73.90;;;;;;5074105;28;20052;-85
2023/06/04 00:24:08;;;;;;;6.45;2.22;;;13.70;74.20;;;;;;5074018;28;20064;-85
2023/06/04 00:26:34;;;;;;;9.68;2.80;;;13.60;74.30;;;;;;5073563;28;20447;-85
2023/06/04 00:29:00;;;;;;;6.25;1.90;;;13.60;75.60;;;;;;5073980;28;20571;-85
2023/06/04 00:31:26;;;;;;;5.35;1.65;;;13.50;75.10;;;;;;5073673;28;20076;-85
2023/06/04 00:33:51;;;;;;;9.60;3.10;;;13.50;75.40;;;;;;5074243;28;20483;-85
2023/06/04 00:36:17;;;;;;;6.60;2.78;;;13.50;76.80;;;;;;5091897;28;20387;-85
2023/06/04 00:38:43;;;;;;;5.07;1.92;;;13.50;77.40;;;;;;5073920;28;20493;-85
2023/06/04 00:41:08;;;;;;;10.35;2.22;;;13.40;76.90;;;;;;5073322;28;20039;-86
2023/06/04 00:43:35;;;;;;;9.23;3.42;;;13.40;77.40;;;;;;5091912;28;20039;-86
2023/06/04 00:46:03;;;;;;;9.85;3.45;;;13.40;79.50;;;;;;5073780;28;20048;-85
2023/06/04 00:48:30;;;;;;;7.90;2.30;;;13.40;79.40;;;;;;5057025;28;20043;-85
2023/06/04 00:50:56;;;;;;;6.28;1.88;;;13.30;78.90;;;;;;5073495;28;20511;-85
2023/06/04 00:53:24;;;;;;;8.10;2.30;;;13.20;79.30;;;;;;5073670;28;20115;-85
2023/06/04 00:55:50;;;;;;;8.50;3.40;;;13.20;80.10;;;;;;5073830;28;20044;-85
2023/06/04 00:58:16;;;;;;;7.07;2.22;;;13.10;83.00;;;;;;5074096;28;20043;-85
2023/06/04 01:00:45;;;;;;;6.93;2.17;;;13.10;82.70;;;;;;5091430;28;20393;-85
2023/06/04 01:03:16;;;;;;;7.20;2.35;;;13.10;83.00;;;;;;5073638;28;20517;-85
2023/06/04 01:05:59;;;;;;;10.23;3.85;;;13.00;84.20;;;;;;5073703;28;20044;-85
2023/06/04 01:08:26;;;;;;;6.03;2.28;;;13.10;89.40;;;;;;5073533;28;20087;-84
2023/06/04 01:10:53;;;;;;;6.80;2.22;;;13.00;88.40;;;;;;5091203;28;20040;-84
2023/06/04 01:13:18;;;;;;;8.32;2.70;;;13.00;88.90;;;;;;5073459;28;20040;-84
2023/06/04 01:15:44;;;;;;;10.15;3.25;;;12.90;90.40;;;;;;5073394;28;20043;-84
2023/06/04 01:18:11;;;;;;;8.23;2.17;;;12.90;91.00;;;;;;5073437;28;20165;-84
2023/06/04 01:20:47;;;;;;;8.27;2.75;;;12.90;91.40;;;;;;5074993;28;20048;-84
2023/06/04 01:23:33;;;;;;;9.20;2.30;;;12.80;92.30;;;;;;5060009;28;20135;-84
2023/06/04 01:26:03;;;;;;;10.63;4.40;;;12.80;92.60;;;;;;5077077;28;20565;-84
2023/06/04 01:28:33;;;;;;;10.65;2.30;;;12.80;96.40;;;;;;5095527;28;20044;-84
2023/06/04 01:31:01;;;;;;;11.10;2.75;;;12.80;94.80;;;;;;5095120;28;20052;-84
2023/06/04 01:33:27;;;;;;;6.60;2.45;;;12.70;95.40;;;;;;5077168;28;20101;-85
2023/06/04 01:35:53;;;;;;;9.10;3.72;;;12.60;95.40;;;;;;5076987;28;20451;-85
2023/06/04 01:38:18;;;;;;;7.50;2.40;;;12.70;98.70;;;;;;5077066;28;20036;-84
2023/06/04 01:40:45;;;;;;;12.13;4.15;;;12.60;97.10;;;;;;5076909;28;20032;-84
2023/06/04 01:43:10;;;;;;;7.97;2.42;;;12.50;97.30;;;;;;5077023;28;20044;-84
2023/06/04 01:45:36;;;;;;;10.88;4.32;;;12.50;97.80;;;;;;5076927;28;20109;-84
2023/06/04 01:48:03;;;;;;;10.57;2.70;;;12.50;99.90;;;;;;5076815;28;20043;-84
2023/06/04 01:50:30;;;;;;;10.00;3.80;;;12.50;99.50;;;;;;5076526;28;20047;-84
2023/06/04 01:52:56;;;;;;;8.93;2.50;;;12.50;99.90;;;;;;5076780;28;20040;-84
2023/06/04 01:55:22;;;;;;;8.38;2.58;;;12.50;99.90;;;;;;5076796;28;20101;-84
2023/06/04 01:57:47;;;;;;;7.15;2.40;;;12.40;99.90;;;;;;5077048;28;20563;-84
2023/06/04 02:00:14;;;;;;;7.75;2.38;;;12.30;99.90;;;;;;5076639;28;20044;-84
2023/06/04 02:02:43;;;;;;;9.05;3.03;;;12.30;99.90;;;;;;5076556;28;20041;-84
2023/06/04 02:05:10;;;;;;;10.02;2.95;;;12.20;99.90;;;;;;5076670;28;20073;-84
2023/06/04 02:07:38;;;;;;;10.20;2.95;;;12.20;99.90;;;;;;5076521;28;20404;-84
2023/06/04 02:10:17;;;;;;;10.38;2.97;;;12.10;99.90;;;;;;5076190;28;20036;-84
2023/06/04 02:12:57;;;;;;;9.27;3.35;;;12.10;99.90;;;;;;5076431;28;20044;-84
2023/06/04 02:15:24;;;;;;;9.32;2.70;;;12.10;99.90;;;;;;5076479;28;20064;-84
2023/06/04 02:17:50;;;;;;;10.40;2.90;;;12.00;99.90;;;;;;5076661;28;20401;-84
2023/06/04 02:20:17;;;;;;;15.38;3.42;;;12.00;99.90;;;;;;5076038;28;20036;-84
2023/06/04 02:22:43;;;;;;;10.20;2.70;;;11.90;99.90;;;;;;5094495;28;20036;-84
2023/06/04 02:25:09;;;;;;;7.07;2.40;;;11.90;99.90;;;;;;5059624;28;20044;-84
2023/06/04 02:27:35;;;;;;;11.88;4.70;;;11.90;99.90;;;;;;5076121;28;20040;-84
2023/06/04 02:30:01;;;;;;;9.98;2.83;;;12.00;99.90;;;;;;5075760;28;20047;-84
2023/06/04 02:32:28;;;;;;;11.52;2.90;;;11.90;99.90;;;;;;5076122;28;20044;-84
2023/06/04 02:34:55;;;;;;;8.77;2.78;;;11.90;99.90;;;;;;5075935;28;20043;-84
2023/06/04 02:37:21;;;;;;;10.23;2.78;;;11.80;99.90;;;;;;5076085;28;20032;-84
2023/06/04 02:39:46;;;;;;;7.55;2.78;;;11.80;99.90;;;;;;5059214;28;20463;-84
2023/06/04 02:42:12;;;;;;;6.15;2.35;;;11.80;99.90;;;;;;5075979;28;20838;-85
2023/06/04 02:44:38;;;;;;;10.52;2.85;;;11.80;99.90;;;;;;5075925;28;20040;-84
2023/06/04 02:47:04;;;;;;;12.57;3.13;;;11.70;99.90;;;;;;5075825;28;20072;-84
2023/06/04 02:49:30;;;;;;;11.30;3.08;;;11.70;99.90;;;;;;5075414;28;20076;-84
2023/06/04 02:51:55;;;;;;;11.82;3.20;;;11.70;99.90;;;;;;5075652;28;20125;-84
2023/06/04 02:54:21;;;;;;;10.48;3.33;;;11.60;99.90;;;;;;5075857;28;20188;-84
2023/06/04 02:56:48;;;;;;;9.90;2.50;;;11.60;99.90;;;;;;5075481;28;20487;-84
2023/06/04 02:59:14;;;;;;;10.82;3.00;;;11.60;99.90;;;;;;5075432;28;20044;-84
2023/06/04 03:01:40;;;;;;;8.32;2.92;;;11.60;99.90;;;;;;5075263;28;20158;-84
2023/06/04 03:04:09;;;;;;;6.97;2.85;;;11.60;99.90;;;;;;5093661;28;20462;-84
2023/06/04 03:06:39;;;;;;;10.25;2.40;;;11.50;99.90;;;;;;5075439;28;20059;-84
2023/06/04 03:09:05;;;;;;;11.93;3.42;;;11.50;99.90;;;;;;5075363;28;20133;-84
2023/06/04 03:11:31;;;;;;;8.85;2.40;;;11.50;99.90;;;;;;5075023;28;20501;-84
2023/06/04 03:13:56;;;;;;;9.27;3.28;;;11.40;99.90;;;;;;5093419;28;20399;-84
2023/06/04 03:16:22;;;;;;;11.20;2.63;;;11.30;99.90;;;;;;5075254;28;20414;-84
2023/06/04 03:18:48;;;;;;;12.85;2.92;;;11.30;99.90;;;;;;5093331;28;20067;-84
2023/06/04 03:21:13;;;;;;;11.68;3.10;;;11.30;99.90;;;;;;5074803;28;20492;-84
2023/06/04 03:23:40;;;;;;;12.25;2.78;;;11.30;99.90;;;;;;5074916;28;20472;-84
2023/06/04 03:26:06;;;;;;;9.18;2.95;;;11.20;99.90;;;;;;5093141;28;20050;-84
2023/06/04 03:28:32;;;;;;;11.13;3.05;;;11.20;99.90;;;;;;5075277;28;20039;-84
2023/06/04 03:30:58;;;;;;;10.38;2.72;;;11.20;99.90;;;;;;5074727;28;20044;-84
2023/06/04 03:33:24;;;;;;;11.32;3.45;;;11.20;99.90;;;;;;5075228;28;20382;-84
2023/06/04 03:35:52;;;;;;;11.05;2.83;;;11.20;99.90;;;;;;5074685;28;20492;-84
2023/06/04 03:38:18;;;;;;;9.50;2.95;;;11.20;99.90;;;;;;5074728;28;20051;-84
2023/06/04 03:40:43;;;;;;;9.57;3.00;;;11.20;99.90;;;;;;5074751;28;20040;-84
2023/06/04 03:43:09;;;;;;;8.82;3.00;;;11.20;99.90;;;;;;5074574;28;20504;-84
2023/06/04 03:45:35;;;;;;;11.23;3.17;;;11.20;99.90;;;;;;5074706;28;20044;-84
2023/06/04 03:48:01;;;;;;;11.63;3.22;;;11.20;99.90;;;;;;5074939;28;20051;-84
2023/06/04 03:50:27;;;;;;;8.95;2.67;;;11.20;99.90;;;;;;5074240;28;20070;-84
2023/06/04 03:52:53;;;;;;;12.65;3.05;;;11.20;99.90;;;;;;5074418;28;20052;-84
2023/06/04 03:55:18;;;;;;;8.85;2.60;;;11.10;99.90;;;;;;5074549;28;20173;-84
2023/06/04 03:57:44;;;;;;;7.30;2.33;;;11.10;99.90;;;;;;5074554;28;20043;-84
2023/06/04 04:00:12;;;;;;;8.38;2.50;;;11.00;99.90;;;;;;5092276;28;20143;-84
2023/06/04 04:02:42;;;;;;;11.15;2.90;;;10.90;99.90;;;;;;5074429;28;20044;-84
2023/06/04 04:05:09;;;;;;;9.52;2.92;;;10.90;99.90;;;;;;5074298;28;20043;-84
2023/06/04 04:07:35;;;;;;;11.57;2.83;;;10.90;99.90;;;;;;5074467;28;20048;-84
2023/06/04 04:10:00;;;;;;;9.75;3.22;;;10.90;99.90;;;;;;5073969;28;20050;-84
2023/06/04 04:12:26;;;;;;;8.13;2.90;;;10.90;99.90;;;;;;5074118;28;20070;-84
2023/06/04 04:14:51;;;;;;;13.65;3.47;;;10.90;99.90;;;;;;5074374;28;20035;-84
2023/06/04 04:17:17;;;;;;;11.60;3.35;;;10.90;99.90;;;;;;5074185;28;20047;-84
2023/06/04 04:19:43;;;;;;;13.05;5.75;;;11.00;99.90;;;;;;5074009;28;20040;-84
2023/06/04 04:22:10;;;;;;;12.60;6.22;;;11.10;99.90;;;;;;5074391;28;20048;-84
2023/06/04 04:24:37;;;;;;;12.00;3.45;;;11.30;99.90;;;;;;5092123;28;20047;-84
2023/06/04 04:27:04;;;;;;;14.07;3.75;;;11.30;99.90;;;;;;5073916;28;20047;-84
2023/06/04 04:29:32;;;;;;;10.73;3.47;;;11.30;99.90;;;;;;5056940;28;20048;-84
2023/06/04 04:32:00;;;;;;;9.85;3.90;;;11.30;99.90;;;;;;5074003;28;20040;-84
2023/06/04 04:34:26;;;;;;;11.35;3.80;;;11.40;99.90;;;;;;5073639;28;20509;-84
2023/06/04 04:36:52;;;;;;;12.27;3.58;;;11.40;99.90;;;;;;5074184;28;20066;-84
2023/06/04 04:39:24;;;;;;;11.25;3.80;;;11.40;99.90;;;;;;5073806;28;20513;-84
2023/06/04 04:41:51;;;;;;;10.07;3.88;;;11.50;99.90;;;;;;5091746;28;20161;-84
2023/06/04 04:44:17;;;;;;;10.95;4.07;;;11.60;99.90;;;;;;5073837;28;20117;-84
2023/06/04 04:46:42;;;;;;;10.55;3.95;;;11.60;99.90;;;;;;5074015;28;20036;-84
2023/06/04 04:49:08;;;;;;;11.23;4.00;;;11.70;99.90;;;;;;5073612;28;20052;-84
2023/06/04 04:51:34;;;;;;;12.02;4.45;;;11.70;99.90;;;;;;5073463;28;20040;-84
2023/06/04 04:54:00;;;;;;;8.90;3.47;;;11.80;99.90;;;;;;5073329;28;20052;-84
2023/06/04 04:56:26;;;;;;;9.90;3.65;;;11.80;99.90;;;;;;5073219;28;20044;-84
2023/06/04 04:58:53;;;;;;;15.65;6.85;;;11.90;99.90;;;;;;5073645;28;20097;-84
2023/06/04 05:01:19;;;;;;;12.23;4.68;;;12.00;99.90;;;;;;5073420;28;20051;-84
2023/06/04 05:03:44;;;;;;;12.38;4.28;;;12.10;99.90;;;;;;5073495;28;20111;-84
2023/06/04 05:06:10;;;;;;;10.85;4.25;;;12.10;99.90;;;;;;5073926;28;20449;-84
2023/06/04 05:08:36;;;;;;;9.73;3.80;;;12.20;99.90;;;;;;5073809;28;20040;-84
2023/06/04 05:11:01;;;;;;;10.80;4.70;;;12.20;99.90;;;;;;5073107;28;20044;-84
2023/06/04 05:13:27;;;;;;;12.25;5.07;;;12.30;99.90;;;;;;5073539;28;20115;-84
2023/06/04 05:15:53;;;;;;;11.05;3.78;;;12.30;99.90;;;;;;5073465;28;20113;-84
2023/06/04 05:18:28;;;;;;;12.35;4.30;;;12.40;99.90;;;;;;5073346;28;20036;-84
2023/06/04 05:20:59;;;;;;;12.38;4.25;;;12.50;99.90;;;;;;5073530;28;20066;-84
2023/06/04 05:23:26;;;;;;;11.70;4.20;;;12.50;99.90;;;;;;5073469;28;20040;-84
2023/06/04 05:25:52;;;;;;;12.10;4.38;;;12.60;99.90;;;;;;5056582;28;20044;-84
2023/06/04 05:28:18;;;;;;;14.50;6.75;;;12.70;99.90;;;;;;5073479;28;20051;-84
2023/06/04 05:30:44;;;;;;;12.07;4.55;;;12.80;99.90;;;;;;5072933;28;20050;-84
2023/06/04 05:33:17;;;;;;;13.38;4.07;;;12.90;99.90;;;;;;5091488;28;20044;-84
2023/06/04 05:35:45;;;;;;;11.35;3.50;;;12.90;99.90;;;;;;5073458;28;20040;-85
2023/06/04 05:38:16;;;;;;;13.95;6.25;;;12.90;99.90;;;;;;5073391;28;20123;-84
2023/06/04 05:40:43;;;;;;;14.43;3.78;;;13.10;99.90;;;;;;5091147;28;20408;-85
2023/06/04 05:43:08;;;;;;;10.90;4.43;;;13.10;99.90;;;;;;5073207;28;20040;-84
2023/06/04 05:45:34;;;;;;;11.50;3.92;;;13.10;99.90;;;;;;5073271;28;20040;-85
2023/06/04 05:48:00;;;;;;;10.75;4.18;;;13.20;99.90;;;;;;5073149;28;20056;-84
2023/06/04 05:50:25;;;;;;;10.10;4.65;;;13.20;99.90;;;;;;5073216;28;20066;-85
2023/06/04 05:52:51;;;;;;;10.32;4.22;;;13.30;99.90;;;;;;5082606;28;20555;-85
2023/06/04 05:55:17;;;;;;;12.45;4.30;;;13.40;99.90;;;;;;5092064;28;20047;-85
2023/06/04 05:57:42;;;;;;;11.65;4.75;;;13.40;99.90;;;;;;5110313;28;20381;-85
2023/06/04 06:00:09;;;;;;;11.75;4.25;;;13.50;99.90;;;;;;5091789;28;20047;-84
2023/06/04 06:02:35;;;;;;;14.63;7.22;;;13.60;99.90;;;;;;5092268;28;20054;-84
2023/06/04 06:05:00;;;;;;;12.50;4.97;;;13.70;99.90;;;;;;5092363;28;20035;-84
2023/06/04 06:07:26;;;;;;;15.35;5.53;;;13.80;99.90;;;;;;5095339;28;20039;-84
2023/06/04 06:09:52;;;;;;;13.25;8.02;;;13.80;99.90;;;;;;5095706;28;20043;-84
2023/06/04 06:12:17;;;;;;;13.23;5.13;;;13.90;99.90;;;;;;5113792;28;20516;-85
2023/06/04 06:14:43;;;;;;;13.57;7.80;;;14.00;99.90;;;;;;5113773;28;20378;-84
2023/06/04 06:17:09;;;;;;;11.68;4.78;;;14.10;99.90;;;;;;5078107;28;20040;-84
2023/06/04 06:19:36;;;;;;;11.55;4.90;;;14.10;99.90;;;;;;5090681;27;20463;-84
2023/06/04 06:22:02;;;;;;;13.82;7.07;;;14.20;99.90;;;;;;5096061;28;20404;-85
2023/06/04 06:24:29;;;;;;;12.27;4.97;;;14.30;99.90;;;;;;5095622;28;20071;-84
2023/06/04 06:26:55;;;;;;;11.75;4.05;;;14.40;99.90;;;;;;5095498;28;20035;-85
2023/06/04 06:29:21;;;;;;;12.80;6.35;;;14.40;99.90;;;;;;5101665;27;20036;-85
2023/06/04 06:31:47;;;;;;;12.80;5.80;;;14.60;99.90;;;;;;5098944;28;20430;-85
2023/06/04 06:34:12;;;;;;;15.18;4.20;;;14.70;99.90;;;;;;5100661;27;20398;-85
2023/06/04 06:36:38;;;;;;;11.75;5.70;;;14.70;99.90;;;;;;5108392;27;20042;-85
2023/06/04 06:39:04;;;;;;;11.50;4.03;;;14.90;99.90;;;;;;5111974;27;20126;-85
2023/06/04 06:41:32;;;;;;;9.10;3.40;;;14.90;99.90;;;;;;5115814;27;20400;-85
2023/06/04 06:43:58;;;;;;;12.40;5.07;;;15.00;99.90;;;;;;5115776;27;20043;-84
2023/06/04 06:46:23;;;;;;;10.13;3.38;;;15.10;99.90;;;;;;5115705;27;20385;-85
2023/06/04 06:48:49;;;;;;;9.75;4.63;;;15.20;99.90;;;;;;5089434;27;20075;-85
2023/06/04 06:51:15;;;;;;;13.20;4.93;;;15.30;99.90;;;;;;5089618;27;20028;-85
2023/06/04 06:53:40;;;;;;;11.35;3.25;;;15.40;99.90;;;;;;5096394;27;20480;-85
2023/06/04 06:56:06;;;;;;;11.70;4.10;;;15.50;99.90;;;;;;5095326;28;20496;-85
2023/06/04 06:58:32;;;;;;;7.80;2.85;;;15.60;99.90;;;;;;5095461;28;20039;-85
2023/06/04 07:00:57;;;;;;;8.07;2.72;;;15.60;99.90;;;;;;5094957;28;20104;-85
2023/06/04 07:03:23;;;;;;;22.77;5.07;;;15.70;99.90;;;;;;5095149;28;20073;-85
2023/06/04 07:05:49;;;;;;;8.05;2.80;;;15.70;99.90;;;;;;5094600;28;20039;-85
2023/06/04 07:08:14;;;;;;;10.98;3.78;;;15.80;99.90;;;;;;5094777;28;20051;-85
2023/06/04 07:10:40;;;;;;;10.63;3.25;;;15.90;99.90;;;;;;5077631;28;20050;-85
2023/06/04 07:13:05;;;;;;;10.45;2.83;;;16.10;99.90;;;;;;5111802;28;20047;-85
2023/06/04 07:15:31;;;;;;;10.05;3.63;;;16.10;99.90;;;;;;5095079;28;20140;-85
2023/06/04 07:17:57;;;;;;;8.18;3.10;;;16.20;99.90;;;;;;5094088;28;20163;-85
2023/06/04 07:20:22;;;;;;;7.95;2.92;;;16.30;99.90;;;;;;5112959;28;20043;-85
2023/06/04 07:22:48;;;;;;;8.65;3.13;;;16.40;99.90;;;;;;5095020;28;20044;-85
2023/06/04 07:25:14;;;;;;;10.75;2.67;;;16.50;99.90;;;;;;5094294;28;20050;-85
2023/06/04 07:27:39;;;;;;;9.43;3.28;;;16.50;99.90;;;;;;5094383;28;20040;-85
2023/06/04 07:30:07;;;;;;;10.05;3.10;;;16.60;99.90;;;;;;5094413;28;20043;-85
2023/06/04 07:32:33;;;;;;;8.73;2.92;;;16.70;99.90;;;;;;5112568;28;20046;-85
2023/06/04 07:34:58;;;;;;;10.35;2.97;;;16.80;99.90;;;;;;5094776;28;20122;-85
2023/06/04 07:37:24;;;;;;;10.68;3.15;;;16.90;99.90;;;;;;5113187;28;20044;-85
2023/06/04 07:39:50;;;;;;;10.05;3.20;;;16.90;99.40;;;;;;5094328;28;20043;-85
2023/06/04 07:42:15;;;;;;;11.82;3.13;;;16.90;98.80;;;;;;5095141;28;20071;-85
2023/06/04 07:44:41;;;;;;;8.75;2.88;;;17.10;98.70;;;;;;5094296;28;20040;-85
2023/06/04 07:47:07;;;;;;;9.27;2.65;;;17.10;97.90;;;;;;5094418;28;20047;-85
2023/06/04 07:49:32;;;;;;;10.57;3.33;;;17.20;97.80;;;;;;5093785;28;20495;-85
2023/06/04 07:51:58;;;;;;;8.90;2.53;;;17.30;97.20;;;;;;5112440;28;20554;-85
2023/06/04 07:54:24;;;;;;;9.02;3.47;;;17.40;96.60;;;;;;5094254;28;20496;-85
2023/06/04 07:56:55;;;;;;;9.93;3.08;;;17.50;96.50;;;;;;5094329;28;20126;-85
2023/06/04 07:59:23;;;;;;;8.20;2.30;;;17.50;95.60;;;;;;5077381;28;20070;-85
2023/06/04 08:01:52;;;;;;;9.45;3.03;;;17.60;95.70;;;;;;5111769;28;20039;-85
2023/06/04 08:04:18;;;;;;;11.50;3.20;;;17.70;95.30;;;;;;5093066;28;20126;-85
2023/06/04 08:06:44;;;;;;;8.73;2.50;;;17.80;94.40;;;;;;5094943;28;20066;-85
2023/06/04 08:09:10;;;;;;;9.90;2.70;;;17.80;92.30;;;;;;5094566;28;20500;-85
2023/06/04 08:11:35;;;;;;;8.65;2.40;;;17.90;91.40;;;;;;5112416;28;20036;-85
2023/06/04 08:14:01;;;;;;;8.20;2.70;;;17.90;90.60;;;;;;5094874;28;20533;-85
2023/06/04 08:16:27;;;;;;;9.80;2.80;;;18.00;90.50;;;;;;5112803;28;20073;-85
2023/06/04 08:18:54;;;;;;;8.73;2.47;;;18.10;90.70;;;;;;5094562;28;20048;-85
2023/06/04 08:21:26;;;;;;;10.07;2.55;;;18.20;90.10;;;;;;5094291;28;20080;-86
2023/06/04 08:23:52;;;;;;;7.68;2.30;;;18.30;89.40;;;;;;5094304;28;20035;-85
2023/06/04 08:26:19;;;;;;;8.07;2.08;;;18.30;88.10;;;;;;5095334;28;20063;-85
2023/06/04 08:28:48;;;;;;;8.45;2.10;;;18.40;87.00;;;;;;5094211;28;20043;-85
2023/06/04 08:31:13;;;;;;;7.40;2.05;;;18.50;84.80;;;;;;5096781;28;20043;-85
2023/06/04 08:33:39;;;;;;;6.55;1.92;;;18.60;82.10;;;;;;5123435;27;20023;-85
2023/06/04 08:36:05;;;;;;;6.97;1.65;;;18.60;79.20;;;;;;5096727;28;20537;-85
2023/06/04 08:38:30;;;;;;;7.68;2.22;;;18.70;77.80;;;;;;5094128;28;20043;-85
2023/06/04 08:41:02;;;;;;;6.57;1.88;;;18.70;77.80;;;;;;5101570;27;20073;-85
2023/06/04 08:43:30;;;;;;;6.60;1.80;;;18.80;77.90;;;;;;5117615;27;20489;-85
2023/06/04 08:46:01;;;;;;;7.85;2.13;;;18.90;77.20;;;;;;5090630;28;20077;-85
2023/06/04 08:48:29;;;;;;;9.48;2.40;;;18.90;76.40;;;;;;5109923;28;20063;-85
2023/06/04 08:50:59;;;;;;;7.05;1.88;;;19.00;75.20;;;;;;5110215;28;20071;-85
2023/06/04 08:53:25;;;;;;;8.43;2.45;;;19.00;74.80;;;;;;5110620;28;20050;-86
2023/06/04 08:55:53;;;;;;;5.97;1.88;;;19.10;74.60;;;;;;5111852;28;20050;-85
2023/06/04 08:58:19;;;;;;;5.30;1.63;;;19.20;73.20;;;;;;5110466;28;20058;-86
2023/06/04 09:00:45;;;;;;;7.20;2.00;;;19.20;71.80;;;;;;5110135;28;20039;-85
2023/06/04 09:03:13;;;;;;;7.50;1.80;;;19.30;71.90;;;;;;5109656;28;20121;-85
2023/06/04 09:05:39;;;;;;;7.55;1.67;;;19.40;72.40;;;;;;5110996;28;20119;-86
2023/06/04 09:08:08;;;;;;;7.35;1.95;;;19.50;72.00;;;;;;5109319;28;20035;-85
2023/06/04 09:10:36;;;;;;;8.57;2.20;;;19.50;72.00;;;;;;5092470;28;20052;-85
2023/06/04 09:13:03;;;;;;;8.57;2.20;;;19.60;71.80;;;;;;5110213;28;20050;-86
2023/06/04 09:15:29;;;;;;;7.72;2.10;;;19.70;71.50;;;;;;5110296;28;20451;-85
2023/06/04 09:17:55;;;;;;;7.88;2.53;;;19.80;71.00;;;;;;5110518;28;20053;-86
2023/06/04 09:20:24;;;;;;;7.95;1.92;;;19.80;70.50;;;;;;5109979;28;20381;-85
2023/06/04 09:22:51;;;;;;;6.57;2.05;;;19.90;69.40;;;;;;5110339;28;20039;-86
2023/06/04 09:25:25;;;;;;;7.00;2.05;;;20.00;70.00;;;;;;5113193;28;20047;-86
2023/06/04 09:27:51;;;;;;;7.07;2.42;;;20.00;69.40;;;;;;5113074;28;20063;-85
2023/06/04 09:30:17;;;;;;;8.98;2.10;;;20.10;68.60;;;;;;5113110;28;20108;-85
2023/06/04 09:32:43;;;;;;;7.20;2.50;;;20.10;69.00;;;;;;5113659;28;20043;-85
2023/06/04 09:35:11;;;;;;;7.85;2.03;;;20.20;68.90;;;;;;5113329;28;20035;-85
2023/06/04 09:37:37;;;;;;;6.40;2.00;;;20.30;68.70;;;;;;5113662;28;20096;-85
2023/06/04 09:40:05;;;;;;;8.43;2.28;;;20.40;69.00;;;;;;5113455;27;20039;-86
2023/06/04 09:42:41;;;;;;;7.68;1.85;;;20.50;69.20;;;;;;5117092;27;20392;-85
2023/06/04 09:45:07;;;;;;;6.28;2.00;;;20.60;68.70;;;;;;5117174;27;20114;-85
2023/06/04 09:47:43;;;;;;;7.13;2.03;;;20.70;68.30;;;;;;5116546;27;20096;-85
2023/06/04 09:50:12;;;;;;;6.22;1.80;;;20.80;67.60;;;;;;5116591;27;20071;-86
2023/06/04 09:52:39;;;;;;;6.72;1.90;;;20.80;67.90;;;;;;5117374;27;20385;-85
2023/06/04 09:55:25;;;;;;;8.13;2.10;;;20.90;67.10;;;;;;5116863;27;20452;-86
2023/06/04 09:57:52;;;;;;;6.97;1.77;;;21.00;67.30;;;;;;5116691;27;20050;-85
2023/06/04 10:00:23;;;;;;;9.60;2.10;;;21.00;67.10;;;;;;5116682;27;20049;-85
2023/06/04 10:02:55;;;;;;;8.55;1.90;;;21.10;66.80;;;;;;5116900;27;20043;-85
2023/06/04 10:05:22;;;;;;;7.55;2.13;;;21.20;66.40;;;;;;5116706;27;20416;-85
2023/06/04 10:07:51;;;;;;;8.32;1.80;;;21.30;66.50;;;;;;5115926;27;20454;-85
2023/06/04 10:10:20;;;;;;;7.32;1.98;;;21.40;65.50;;;;;;5115835;27;20047;-85
2023/06/04 10:12:53;;;;;;;7.30;1.90;;;21.50;65.30;;;;;;5116722;27;20045;-85
2023/06/04 10:15:20;;;;;;;5.85;1.60;;;21.60;64.80;;;;;;5116863;27;20046;-85
2023/06/04 10:17:48;;;;;;;7.47;2.53;;;21.60;64.20;;;;;;5116675;27;20490;-85
2023/06/04 10:20:14;;;;;;;7.03;2.17;;;21.70;64.00;;;;;;5115915;27;20039;-85
2023/06/04 10:22:40;;;;;;;6.00;1.65;;;21.80;63.80;;;;;;5116237;27;20051;-85
2023/06/04 10:25:08;;;;;;;5.97;1.80;;;21.90;62.20;;;;;;5116322;27;20631;-85
2023/06/04 10:27:35;;;;;;;5.68;1.70;;;22.00;61.80;;;;;;5115917;27;20054;-86
2023/06/04 10:30:02;;;;;;;7.60;1.88;;;22.10;61.40;;;;;;5115708;27;20051;-85
2023/06/04 10:32:29;;;;;;;6.95;2.08;;;22.10;62.20;;;;;;5100266;27;20055;-85
2023/06/04 10:34:55;;;;;;;8.38;2.90;;;22.20;61.00;;;;;;5116160;27;20067;-85
2023/06/04 10:37:25;;;;;;;7.50;2.22;;;22.20;60.50;;;;;;5116358;27;20043;-85
2023/06/04 10:39:56;;;;;;;7.63;2.80;;;22.30;60.60;;;;;;5116033;27;20043;-85
2023/06/04 10:42:23;;;;;;;8.52;2.17;;;22.40;60.40;;;;;;5099247;27;20096;-85
2023/06/04 10:44:52;;;;;;;7.35;2.63;;;22.50;59.90;;;;;;5116203;27;20049;-85
2023/06/04 10:47:25;;;;;;;6.40;1.63;;;22.60;60.00;;;;;;5133698;27;20096;-85
2023/06/04 10:49:55;;;;;;;6.75;2.00;;;22.70;59.20;;;;;;5115471;27;20111;-85
2023/06/04 10:52:21;;;;;;;6.00;1.80;;;22.80;60.00;;;;;;5113459;28;20078;-85
2023/06/04 10:54:48;;;;;;;10.80;2.30;;;22.90;59.30;;;;;;5115550;27;20039;-85
2023/06/04 10:57:17;;;;;;;7.32;2.40;;;23.00;59.40;;;;;;5116431;27;20142;-85
2023/06/04 11:00:00;;;;;;;8.18;2.13;;;23.00;58.40;;;;;;5115780;27;20404;-85
2023/06/04 11:02:26;;;;;;;7.13;2.33;;;23.10;58.30;;;;;;5135539;27;20385;-85
2023/06/04 11:05:09;;;;;;;6.72;1.70;;;23.10;58.40;;;;;;5116264;27;20500;-85
2023/06/04 11:07:43;;;;;;;7.63;2.03;;;23.20;58.70;;;;;;5099582;27;20444;-85
2023/06/04 11:10:10;;;;;;;6.97;1.90;;;23.30;57.70;;;;;;5115906;27;20039;-85
2023/06/04 11:12:45;;;;;;;5.88;1.63;;;23.30;56.90;;;;;;5116112;27;20084;-85
2023/06/04 11:15:12;;;;;;;7.95;1.85;;;23.40;56.70;;;;;;5116299;27;20381;-85
2023/06/04 11:17:37;;;;;;;6.50;1.92;;;23.40;57.00;;;;;;5116057;27;20046;-85
2023/06/04 11:20:06;;;;;;;5.60;1.85;;;23.50;56.70;;;;;;5115631;27;20424;-85
2023/06/04 11:22:33;;;;;;;7.28;1.70;;;23.50;55.90;;;;;;5134255;27;20042;-85
2023/06/04 11:24:59;;;;;;;6.18;1.88;;;23.50;56.30;;;;;;5116106;27;20381;-85
2023/06/04 11:27:25;;;;;;;8.00;1.90;;;23.60;56.00;;;;;;5115749;27;20046;-86
2023/06/04 11:29:54;;;;;;;6.72;1.70;;;23.60;55.50;;;;;;5115479;27;20039;-85
2023/06/04 11:32:26;;;;;;;10.10;1.90;;;23.60;55.30;;;;;;5115726;27;20070;-86
2023/06/04 11:35:01;;;;;;;7.50;2.28;;;23.70;56.60;;;;;;5115546;27;20047;-85
2023/06/04 11:37:30;;;;;;;8.25;1.95;;;23.80;56.50;;;;;;5115792;27;20392;-85
2023/06/04 11:39:56;;;;;;;6.13;1.70;;;24.00;56.80;;;;;;5115154;27;20095;-85
2023/06/04 11:42:22;;;;;;;6.90;2.03;;;24.10;56.60;;;;;;5115841;27;20075;-86
2023/06/04 11:44:48;;;;;;;6.60;1.80;;;24.20;55.70;;;;;;5098558;27;20505;-85
2023/06/04 11:47:15;;;;;;;7.47;1.95;;;24.20;55.20;;;;;;5098427;27;20050;-86
2023/06/04 11:49:42;;;;;;;6.15;1.70;;;24.20;55.20;;;;;;5114833;27;20039;-85
2023/06/04 11:52:08;;;;;;;7.43;1.83;;;24.30;55.50;;;;;;5098267;27;20046;-86
2023/06/04 11:54:38;;;;;;;6.05;2.00;;;24.40;54.90;;;;;;5115252;27;20122;-85
2023/06/04 11:57:04;;;;;;;7.18;2.20;;;24.50;54.30;;;;;;5115444;27;20043;-85
2023/06/04 11:59:31;;;;;;;8.82;2.85;;;24.50;53.60;;;;;;5114858;27;20468;-86
2023/06/04 12:01:57;;;;;;;8.55;3.97;;;24.40;53.70;;;;;;5133456;27;20438;-85
2023/06/04 12:04:23;;;;;;;6.15;1.83;;;24.50;54.30;;;;;;5133174;27;20497;-86
2023/06/04 12:06:59;;;;;;;6.05;1.85;;;24.70;53.70;;;;;;5115012;27;20043;-86
2023/06/04 12:09:38;;;;;;;7.63;2.13;;;24.80;53.60;;;;;;5114540;27;20535;-86
2023/06/04 12:12:05;;;;;;;6.55;1.70;;;24.90;53.80;;;;;;5114907;27;20508;-86
2023/06/04 12:14:31;;;;;;;6.90;1.83;;;25.00;53.90;;;;;;5133007;27;20043;-86
2023/06/04 12:17:08;;;;;;;6.70;1.60;;;25.20;54.20;;;;;;5114547;27;20053;-86
2023/06/04 12:19:44;;;;;;;7.05;3.03;;;25.30;54.00;;;;;;5113962;27;20039;-86
2023/06/04 12:22:10;;;;;;;8.23;3.28;;;25.40;53.80;;;;;;5115111;27;20088;-86
2023/06/04 12:24:48;;;;;;;7.18;2.20;;;25.50;52.90;;;;;;5097608;27;20035;-86
2023/06/04 12:27:14;;;;;;;13.73;3.15;;;25.60;52.40;;;;;;5133168;27;20084;-86
2023/06/04 12:29:40;;;;;;;4.95;1.65;;;25.60;51.70;;;;;;5114254;27;20037;-86
2023/06/04 12:32:13;;;;;;;5.90;1.58;;;25.70;52.30;;;;;;5114793;27;20118;-86
2023/06/04 12:34:40;;;;;;;8.07;1.90;;;25.70;51.00;;;;;;5114529;27;20039;-86
2023/06/04 12:37:06;;;;;;;6.38;1.92;;;25.80;50.90;;;;;;5114445;27;20132;-86
2023/06/04 12:39:33;;;;;;;6.50;1.63;;;25.80;49.70;;;;;;5132503;27;20454;-86
2023/06/04 12:41:58;;;;;;;6.95;2.00;;;25.80;50.50;;;;;;5114375;27;20511;-86
2023/06/04 12:44:24;;;;;;;6.03;1.60;;;25.90;50.60;;;;;;5114276;27;20073;-86